Hauptseite
METAR-TAF:

METAR-TAF

Flughäfen :

Turin, Italien

Flughafen Turin

Breite: 45-13N, Länge: 007-39E, Höhe: 301 m

Beobachtung

Neuester Wetterbericht von vor 35 Minuten, um 10:50 UTC
Wind 2 kt aus unterschiedlichen Richtungen
Temperatur 11°C
Luftfeuchtigkeit 66%
Luftdruck 1020 hPa
Sichtweite: 5000 m
feuchter Dunst

METAR: LIMF 231050Z VRB02KT 5000 BR NSC 11/05 Q1020

Zeit: 12:25 (11:25 UTC)

Prognose

Neuester Wetterbericht von vor 6 Stunden und 25 Minuten, um 05:00 UTC
Gültige Prognose vom 23 um 06 UTC bis 24 um 06 UTC
Wind 5 kt aus unterschiedlichen Richtungen
Sichtweite: 6000 m
Aufgelockert bewölkt in der Höhe von 5000 ft

TAF: LIMF 230500Z 2306/2406 VRB05KT 6000 SCT050

Wetterbeobachtungen und Prognosen von mehr als 4000 Flughäfen (METAR und TAF Bericht).

Die verfügbaren Stationen werden durch gelbe und rote Markierungen auf der Karte dargestellt.

Führen Sie die Maus auf sie, um den Namen der Station zu sehen.

Darauf klicken, um die Beobachtung von Wetterbeobachtungen und Prognosen zu sehen.

Um die Karte zu ändern : klicken Sie auf den grünen Tasten mit einem schwarzen Kreuz Zum Vergrößern, auf den grünen Button mit einem Gedankenstrich zu verkleinern, oder auf die grünen Pfeile für benachbarte Karten.


METAR-TAF: